sensor_id;sensor_type;location;lat;lon;timestamp;P1;durP1;ratioP1;P2;durP2;ratioP2
19985;SDS011;10154;52.474;10.768;2023-11-22T00:00:31;5.00;;;2.40;;
19985;SDS011;10154;52.474;10.768;2023-11-22T00:02:57;5.30;;;2.23;;
19985;SDS011;10154;52.474;10.768;2023-11-22T00:05:22;4.73;;;2.50;;
19985;SDS011;10154;52.474;10.768;2023-11-22T00:07:48;8.03;;;2.40;;
19985;SDS011;10154;52.474;10.768;2023-11-22T00:10:13;4.80;;;2.40;;
19985;SDS011;10154;52.474;10.768;2023-11-22T00:12:39;3.77;;;2.13;;
19985;SDS011;10154;52.474;10.768;2023-11-22T00:15:04;4.43;;;2.43;;
19985;SDS011;10154;52.474;10.768;2023-11-22T00:17:31;3.77;;;2.17;;
19985;SDS011;10154;52.474;10.768;2023-11-22T00:19:57;7.23;;;2.50;;
19985;SDS011;10154;52.474;10.768;2023-11-22T00:22:23;5.53;;;2.53;;
19985;SDS011;10154;52.474;10.768;2023-11-22T00:24:48;6.67;;;2.57;;
19985;SDS011;10154;52.474;10.768;2023-11-22T00:27:15;6.50;;;2.43;;
19985;SDS011;10154;52.474;10.768;2023-11-22T00:29:41;8.20;;;2.33;;
19985;SDS011;10154;52.474;10.768;2023-11-22T00:32:06;7.50;;;2.10;;
19985;SDS011;10154;52.474;10.768;2023-11-22T00:34:32;4.30;;;2.40;;
19985;SDS011;10154;52.474;10.768;2023-11-22T00:36:58;6.70;;;2.30;;
19985;SDS011;10154;52.474;10.768;2023-11-22T00:39:23;5.80;;;2.20;;
19985;SDS011;10154;52.474;10.768;2023-11-22T00:41:49;5.20;;;2.40;;
19985;SDS011;10154;52.474;10.768;2023-11-22T00:44:14;4.27;;;2.30;;
19985;SDS011;10154;52.474;10.768;2023-11-22T00:46:39;6.97;;;2.60;;
19985;SDS011;10154;52.474;10.768;2023-11-22T00:49:05;5.30;;;2.33;;
19985;SDS011;10154;52.474;10.768;2023-11-22T00:51:31;4.20;;;2.33;;
19985;SDS011;10154;52.474;10.768;2023-11-22T00:53:58;5.90;;;2.50;;
19985;SDS011;10154;52.474;10.768;2023-11-22T00:56:23;7.97;;;2.90;;
19985;SDS011;10154;52.474;10.768;2023-11-22T00:58:48;7.70;;;2.80;;
19985;SDS011;10154;52.474;10.768;2023-11-22T01:01:15;6.67;;;2.80;;
19985;SDS011;10154;52.474;10.768;2023-11-22T01:03:43;6.73;;;3.03;;
19985;SDS011;10154;52.474;10.768;2023-11-22T01:06:09;5.70;;;2.87;;
19985;SDS011;10154;52.474;10.768;2023-11-22T01:08:34;7.10;;;2.97;;
19985;SDS011;10154;52.474;10.768;2023-11-22T01:11:00;4.90;;;2.70;;
19985;SDS011;10154;52.474;10.768;2023-11-22T01:13:27;6.57;;;2.90;;
19985;SDS011;10154;52.474;10.768;2023-11-22T01:15:52;5.73;;;2.90;;
19985;SDS011;10154;52.474;10.768;2023-11-22T01:18:19;5.67;;;3.07;;
19985;SDS011;10154;52.474;10.768;2023-11-22T01:20:45;5.00;;;2.60;;
19985;SDS011;10154;52.474;10.768;2023-11-22T01:23:10;5.73;;;3.07;;
19985;SDS011;10154;52.474;10.768;2023-11-22T01:25:35;7.60;;;2.57;;
19985;SDS011;10154;52.474;10.768;2023-11-22T01:28:01;5.43;;;2.50;;
19985;SDS011;10154;52.474;10.768;2023-11-22T01:30:26;4.13;;;2.23;;
19985;SDS011;10154;52.474;10.768;2023-11-22T01:32:53;6.57;;;2.43;;
19985;SDS011;10154;52.474;10.768;2023-11-22T01:35:20;5.57;;;2.33;;
19985;SDS011;10154;52.474;10.768;2023-11-22T01:37:45;6.27;;;2.00;;
19985;SDS011;10154;52.474;10.768;2023-11-22T01:40:11;3.80;;;2.07;;
19985;SDS011;10154;52.474;10.768;2023-11-22T01:42:36;6.17;;;2.50;;
19985;SDS011;10154;52.474;10.768;2023-11-22T01:45:04;5.27;;;2.30;;
19985;SDS011;10154;52.474;10.768;2023-11-22T01:47:30;3.97;;;2.00;;
19985;SDS011;10154;52.474;10.768;2023-11-22T01:49:56;4.67;;;2.27;;
19985;SDS011;10154;52.474;10.768;2023-11-22T01:52:22;5.70;;;2.37;;
19985;SDS011;10154;52.474;10.768;2023-11-22T01:54:47;6.03;;;2.50;;
19985;SDS011;10154;52.474;10.768;2023-11-22T01:57:12;6.10;;;2.20;;
19985;SDS011;10154;52.474;10.768;2023-11-22T01:59:39;4.23;;;2.20;;
19985;SDS011;10154;52.474;10.768;2023-11-22T02:02:05;7.00;;;2.57;;
19985;SDS011;10154;52.474;10.768;2023-11-22T02:04:30;6.70;;;2.67;;
19985;SDS011;10154;52.474;10.768;2023-11-22T02:06:55;6.17;;;2.53;;
19985;SDS011;10154;52.474;10.768;2023-11-22T02:09:21;5.13;;;2.57;;
19985;SDS011;10154;52.474;10.768;2023-11-22T02:11:47;5.43;;;2.47;;
19985;SDS011;10154;52.474;10.768;2023-11-22T02:14:14;4.57;;;2.20;;
19985;SDS011;10154;52.474;10.768;2023-11-22T02:16:40;4.93;;;2.57;;
19985;SDS011;10154;52.474;10.768;2023-11-22T02:19:07;6.33;;;2.53;;
19985;SDS011;10154;52.474;10.768;2023-11-22T02:21:41;4.60;;;2.30;;
19985;SDS011;10154;52.474;10.768;2023-11-22T02:24:07;5.30;;;2.40;;
19985;SDS011;10154;52.474;10.768;2023-11-22T02:26:33;7.43;;;2.23;;
19985;SDS011;10154;52.474;10.768;2023-11-22T02:28:58;7.23;;;2.60;;
19985;SDS011;10154;52.474;10.768;2023-11-22T02:31:24;4.17;;;2.27;;
19985;SDS011;10154;52.474;10.768;2023-11-22T02:33:50;6.77;;;2.93;;
19985;SDS011;10154;52.474;10.768;2023-11-22T02:36:15;6.40;;;2.23;;
19985;SDS011;10154;52.474;10.768;2023-11-22T02:38:41;5.43;;;2.20;;
19985;SDS011;10154;52.474;10.768;2023-11-22T02:41:07;5.73;;;2.40;;
19985;SDS011;10154;52.474;10.768;2023-11-22T02:43:34;5.50;;;2.80;;
19985;SDS011;10154;52.474;10.768;2023-11-22T02:45:59;6.77;;;2.53;;
19985;SDS011;10154;52.474;10.768;2023-11-22T02:48:24;5.83;;;2.40;;
19985;SDS011;10154;52.474;10.768;2023-11-22T02:50:50;4.53;;;2.07;;
19985;SDS011;10154;52.474;10.768;2023-11-22T02:53:15;5.50;;;2.60;;
19985;SDS011;10154;52.474;10.768;2023-11-22T02:55:40;6.07;;;2.43;;
19985;SDS011;10154;52.474;10.768;2023-11-22T02:58:06;4.77;;;2.30;;
19985;SDS011;10154;52.474;10.768;2023-11-22T03:00:31;5.70;;;2.33;;
19985;SDS011;10154;52.474;10.768;2023-11-22T03:02:59;6.03;;;2.20;;
19985;SDS011;10154;52.474;10.768;2023-11-22T03:05:25;4.43;;;2.30;;
19985;SDS011;10154;52.474;10.768;2023-11-22T03:07:50;5.77;;;2.57;;
19985;SDS011;10154;52.474;10.768;2023-11-22T03:10:16;6.90;;;2.40;;
19985;SDS011;10154;52.474;10.768;2023-11-22T03:12:43;6.17;;;2.60;;
19985;SDS011;10154;52.474;10.768;2023-11-22T03:15:08;6.40;;;2.30;;
19985;SDS011;10154;52.474;10.768;2023-11-22T03:17:34;6.57;;;2.50;;
19985;SDS011;10154;52.474;10.768;2023-11-22T03:20:00;6.70;;;2.20;;
19985;SDS011;10154;52.474;10.768;2023-11-22T03:22:26;5.27;;;2.60;;
19985;SDS011;10154;52.474;10.768;2023-11-22T03:24:52;5.70;;;2.53;;
19985;SDS011;10154;52.474;10.768;2023-11-22T03:27:18;4.27;;;2.33;;
19985;SDS011;10154;52.474;10.768;2023-11-22T03:29:46;5.83;;;2.27;;
19985;SDS011;10154;52.474;10.768;2023-11-22T03:32:12;5.97;;;2.73;;
19985;SDS011;10154;52.474;10.768;2023-11-22T03:34:37;5.87;;;2.43;;
19985;SDS011;10154;52.474;10.768;2023-11-22T03:37:03;5.57;;;2.43;;
19985;SDS011;10154;52.474;10.768;2023-11-22T03:39:28;4.57;;;2.40;;
19985;SDS011;10154;52.474;10.768;2023-11-22T03:41:54;4.40;;;2.10;;
19985;SDS011;10154;52.474;10.768;2023-11-22T03:44:19;3.77;;;2.07;;
19985;SDS011;10154;52.474;10.768;2023-11-22T03:46:44;5.10;;;2.00;;
19985;SDS011;10154;52.474;10.768;2023-11-22T03:49:10;5.53;;;2.07;;
19985;SDS011;10154;52.474;10.768;2023-11-22T03:51:35;4.17;;;2.20;;
19985;SDS011;10154;52.474;10.768;2023-11-22T03:54:02;3.97;;;1.90;;
19985;SDS011;10154;52.474;10.768;2023-11-22T03:56:27;4.13;;;2.20;;
19985;SDS011;10154;52.474;10.768;2023-11-22T03:58:53;4.57;;;2.07;;
19985;SDS011;10154;52.474;10.768;2023-11-22T04:01:19;7.00;;;2.00;;
19985;SDS011;10154;52.474;10.768;2023-11-22T04:03:45;5.50;;;2.13;;
19985;SDS011;10154;52.474;10.768;2023-11-22T04:06:13;5.37;;;2.50;;
19985;SDS011;10154;52.474;10.768;2023-11-22T04:08:40;4.87;;;2.27;;
19985;SDS011;10154;52.474;10.768;2023-11-22T04:11:06;5.43;;;2.20;;
19985;SDS011;10154;52.474;10.768;2023-11-22T04:13:32;5.30;;;2.23;;
19985;SDS011;10154;52.474;10.768;2023-11-22T04:15:57;6.37;;;2.43;;
19985;SDS011;10154;52.474;10.768;2023-11-22T04:18:22;6.27;;;1.87;;
19985;SDS011;10154;52.474;10.768;2023-11-22T04:20:48;4.60;;;2.20;;
19985;SDS011;10154;52.474;10.768;2023-11-22T04:23:13;4.53;;;2.10;;
19985;SDS011;10154;52.474;10.768;2023-11-22T04:25:40;4.07;;;2.23;;
19985;SDS011;10154;52.474;10.768;2023-11-22T04:28:06;4.90;;;2.67;;
19985;SDS011;10154;52.474;10.768;2023-11-22T04:30:33;8.17;;;2.80;;
19985;SDS011;10154;52.474;10.768;2023-11-22T04:32:59;6.93;;;3.03;;
19985;SDS011;10154;52.474;10.768;2023-11-22T04:35:25;6.73;;;2.97;;
19985;SDS011;10154;52.474;10.768;2023-11-22T04:37:50;9.60;;;3.23;;
19985;SDS011;10154;52.474;10.768;2023-11-22T04:40:15;6.53;;;2.83;;
19985;SDS011;10154;52.474;10.768;2023-11-22T04:42:41;9.27;;;3.07;;
19985;SDS011;10154;52.474;10.768;2023-11-22T04:45:06;7.13;;;3.00;;
19985;SDS011;10154;52.474;10.768;2023-11-22T04:47:32;8.77;;;2.73;;
19985;SDS011;10154;52.474;10.768;2023-11-22T04:49:58;6.20;;;2.80;;
19985;SDS011;10154;52.474;10.768;2023-11-22T04:52:23;7.23;;;3.10;;
19985;SDS011;10154;52.474;10.768;2023-11-22T04:54:49;5.90;;;3.00;;
19985;SDS011;10154;52.474;10.768;2023-11-22T04:57:14;5.53;;;2.30;;
19985;SDS011;10154;52.474;10.768;2023-11-22T04:59:40;6.00;;;2.30;;
19985;SDS011;10154;52.474;10.768;2023-11-22T05:02:05;5.40;;;2.07;;
19985;SDS011;10154;52.474;10.768;2023-11-22T05:04:32;5.77;;;2.30;;
19985;SDS011;10154;52.474;10.768;2023-11-22T05:06:57;5.17;;;2.20;;
19985;SDS011;10154;52.474;10.768;2023-11-22T05:09:22;4.63;;;2.10;;
19985;SDS011;10154;52.474;10.768;2023-11-22T05:11:48;6.20;;;2.03;;
19985;SDS011;10154;52.474;10.768;2023-11-22T05:14:13;6.40;;;2.17;;
19985;SDS011;10154;52.474;10.768;2023-11-22T05:16:39;6.87;;;2.37;;
19985;SDS011;10154;52.474;10.768;2023-11-22T05:19:04;4.70;;;2.37;;
19985;SDS011;10154;52.474;10.768;2023-11-22T05:21:30;6.13;;;2.60;;
19985;SDS011;10154;52.474;10.768;2023-11-22T05:23:56;7.10;;;2.67;;
19985;SDS011;10154;52.474;10.768;2023-11-22T05:26:21;5.83;;;2.50;;
19985;SDS011;10154;52.474;10.768;2023-11-22T05:28:47;5.80;;;2.37;;
19985;SDS011;10154;52.474;10.768;2023-11-22T05:31:13;5.70;;;2.50;;
19985;SDS011;10154;52.474;10.768;2023-11-22T05:33:39;7.37;;;2.60;;
19985;SDS011;10154;52.474;10.768;2023-11-22T05:36:05;5.60;;;2.60;;
19985;SDS011;10154;52.474;10.768;2023-11-22T05:38:31;5.83;;;2.50;;
19985;SDS011;10154;52.474;10.768;2023-11-22T05:40:59;5.40;;;2.57;;
19985;SDS011;10154;52.474;10.768;2023-11-22T05:43:25;4.57;;;2.47;;
19985;SDS011;10154;52.474;10.768;2023-11-22T05:45:52;6.13;;;2.60;;
19985;SDS011;10154;52.474;10.768;2023-11-22T05:48:20;6.20;;;2.90;;
19985;SDS011;10154;52.474;10.768;2023-11-22T05:50:45;5.63;;;2.57;;
19985;SDS011;10154;52.474;10.768;2023-11-22T05:53:11;4.90;;;2.53;;
19985;SDS011;10154;52.474;10.768;2023-11-22T05:55:37;5.87;;;2.90;;
19985;SDS011;10154;52.474;10.768;2023-11-22T05:58:05;7.77;;;2.80;;
19985;SDS011;10154;52.474;10.768;2023-11-22T06:00:31;9.33;;;2.83;;
19985;SDS011;10154;52.474;10.768;2023-11-22T06:02:56;6.30;;;2.77;;
19985;SDS011;10154;52.474;10.768;2023-11-22T06:05:22;7.87;;;2.80;;
19985;SDS011;10154;52.474;10.768;2023-11-22T06:07:47;5.20;;;2.60;;
19985;SDS011;10154;52.474;10.768;2023-11-22T06:10:13;5.27;;;2.47;;
19985;SDS011;10154;52.474;10.768;2023-11-22T06:12:39;6.87;;;2.50;;
19985;SDS011;10154;52.474;10.768;2023-11-22T06:15:05;5.50;;;2.87;;
19985;SDS011;10154;52.474;10.768;2023-11-22T06:17:31;6.40;;;3.10;;
19985;SDS011;10154;52.474;10.768;2023-11-22T06:19:56;8.40;;;3.70;;
19985;SDS011;10154;52.474;10.768;2023-11-22T06:22:21;9.77;;;4.37;;
19985;SDS011;10154;52.474;10.768;2023-11-22T06:24:47;8.17;;;4.10;;
19985;SDS011;10154;52.474;10.768;2023-11-22T06:27:13;6.63;;;3.10;;
19985;SDS011;10154;52.474;10.768;2023-11-22T06:29:39;7.80;;;3.10;;
19985;SDS011;10154;52.474;10.768;2023-11-22T06:32:04;5.30;;;2.47;;
19985;SDS011;10154;52.474;10.768;2023-11-22T06:34:31;5.87;;;2.80;;
19985;SDS011;10154;52.474;10.768;2023-11-22T06:36:56;6.07;;;2.67;;
19985;SDS011;10154;52.474;10.768;2023-11-22T06:39:22;3.87;;;2.17;;
19985;SDS011;10154;52.474;10.768;2023-11-22T06:41:49;5.93;;;2.50;;
19985;SDS011;10154;52.474;10.768;2023-11-22T06:44:15;6.60;;;2.03;;
19985;SDS011;10154;52.474;10.768;2023-11-22T06:46:40;5.23;;;2.50;;
19985;SDS011;10154;52.474;10.768;2023-11-22T06:49:06;4.67;;;2.27;;
19985;SDS011;10154;52.474;10.768;2023-11-22T06:51:31;5.93;;;2.20;;
19985;SDS011;10154;52.474;10.768;2023-11-22T06:53:56;6.13;;;2.67;;
19985;SDS011;10154;52.474;10.768;2023-11-22T06:56:22;9.13;;;2.50;;
19985;SDS011;10154;52.474;10.768;2023-11-22T06:58:48;5.03;;;2.23;;
19985;SDS011;10154;52.474;10.768;2023-11-22T07:01:13;7.30;;;2.93;;
19985;SDS011;10154;52.474;10.768;2023-11-22T07:03:39;5.50;;;2.60;;
19985;SDS011;10154;52.474;10.768;2023-11-22T07:06:05;6.73;;;2.60;;
19985;SDS011;10154;52.474;10.768;2023-11-22T07:08:30;7.70;;;2.80;;
19985;SDS011;10154;52.474;10.768;2023-11-22T07:10:56;4.57;;;2.57;;
19985;SDS011;10154;52.474;10.768;2023-11-22T07:13:24;8.57;;;2.40;;
19985;SDS011;10154;52.474;10.768;2023-11-22T07:15:50;4.80;;;2.40;;
19985;SDS011;10154;52.474;10.768;2023-11-22T07:18:16;6.03;;;2.37;;
19985;SDS011;10154;52.474;10.768;2023-11-22T07:20:42;5.53;;;2.43;;
19985;SDS011;10154;52.474;10.768;2023-11-22T07:23:07;10.43;;;2.13;;
19985;SDS011;10154;52.474;10.768;2023-11-22T07:25:38;8.17;;;2.70;;
19985;SDS011;10154;52.474;10.768;2023-11-22T07:28:04;9.27;;;2.73;;
19985;SDS011;10154;52.474;10.768;2023-11-22T07:30:29;6.90;;;2.67;;
19985;SDS011;10154;52.474;10.768;2023-11-22T07:32:55;7.87;;;2.90;;
19985;SDS011;10154;52.474;10.768;2023-11-22T07:35:21;10.43;;;2.80;;
19985;SDS011;10154;52.474;10.768;2023-11-22T07:37:46;9.77;;;2.90;;
19985;SDS011;10154;52.474;10.768;2023-11-22T07:40:13;10.40;;;3.40;;
19985;SDS011;10154;52.474;10.768;2023-11-22T07:42:39;6.53;;;3.00;;
19985;SDS011;10154;52.474;10.768;2023-11-22T07:45:05;6.73;;;3.20;;
19985;SDS011;10154;52.474;10.768;2023-11-22T07:47:31;7.27;;;3.23;;
19985;SDS011;10154;52.474;10.768;2023-11-22T07:49:56;8.37;;;3.20;;
19985;SDS011;10154;52.474;10.768;2023-11-22T07:52:23;11.10;;;3.90;;
19985;SDS011;10154;52.474;10.768;2023-11-22T07:54:54;11.97;;;3.67;;
19985;SDS011;10154;52.474;10.768;2023-11-22T07:57:21;8.67;;;3.60;;
19985;SDS011;10154;52.474;10.768;2023-11-22T07:59:48;8.93;;;3.13;;
19985;SDS011;10154;52.474;10.768;2023-11-22T08:02:13;8.50;;;2.93;;
19985;SDS011;10154;52.474;10.768;2023-11-22T08:04:39;6.97;;;3.23;;
19985;SDS011;10154;52.474;10.768;2023-11-22T08:07:05;7.10;;;3.03;;
19985;SDS011;10154;52.474;10.768;2023-11-22T08:09:31;5.37;;;2.63;;
19985;SDS011;10154;52.474;10.768;2023-11-22T08:11:57;5.70;;;2.40;;
19985;SDS011;10154;52.474;10.768;2023-11-22T08:14:25;4.23;;;2.17;;
19985;SDS011;10154;52.474;10.768;2023-11-22T08:16:53;4.20;;;2.37;;
19985;SDS011;10154;52.474;10.768;2023-11-22T08:19:20;4.43;;;2.00;;
19985;SDS011;10154;52.474;10.768;2023-11-22T08:21:48;3.70;;;2.00;;
19985;SDS011;10154;52.474;10.768;2023-11-22T08:24:13;4.13;;;2.17;;
19985;SDS011;10154;52.474;10.768;2023-11-22T08:26:39;5.63;;;2.07;;
19985;SDS011;10154;52.474;10.768;2023-11-22T08:29:04;6.03;;;2.17;;
19985;SDS011;10154;52.474;10.768;2023-11-22T08:31:30;4.30;;;2.27;;
19985;SDS011;10154;52.474;10.768;2023-11-22T08:33:55;3.20;;;1.70;;
19985;SDS011;10154;52.474;10.768;2023-11-22T08:36:21;3.83;;;2.10;;
19985;SDS011;10154;52.474;10.768;2023-11-22T08:38:48;5.90;;;2.00;;
19985;SDS011;10154;52.474;10.768;2023-11-22T08:41:14;5.13;;;2.00;;
19985;SDS011;10154;52.474;10.768;2023-11-22T08:43:39;2.60;;;1.70;;
19985;SDS011;10154;52.474;10.768;2023-11-22T08:46:05;6.23;;;2.17;;
19985;SDS011;10154;52.474;10.768;2023-11-22T08:48:32;4.97;;;2.30;;
19985;SDS011;10154;52.474;10.768;2023-11-22T08:50:57;4.83;;;2.20;;
19985;SDS011;10154;52.474;10.768;2023-11-22T08:53:23;8.37;;;2.40;;
19985;SDS011;10154;52.474;10.768;2023-11-22T08:55:49;4.77;;;1.90;;
19985;SDS011;10154;52.474;10.768;2023-11-22T08:58:14;5.13;;;2.33;;
19985;SDS011;10154;52.474;10.768;2023-11-22T09:00:40;5.07;;;2.53;;
19985;SDS011;10154;52.474;10.768;2023-11-22T09:03:10;5.73;;;2.43;;
19985;SDS011;10154;52.474;10.768;2023-11-22T09:05:38;5.03;;;2.20;;
19985;SDS011;10154;52.474;10.768;2023-11-22T09:08:04;4.53;;;2.30;;
19985;SDS011;10154;52.474;10.768;2023-11-22T09:10:30;4.80;;;2.33;;
19985;SDS011;10154;52.474;10.768;2023-11-22T09:12:55;5.13;;;2.47;;
19985;SDS011;10154;52.474;10.768;2023-11-22T09:15:24;6.33;;;2.27;;
19985;SDS011;10154;52.474;10.768;2023-11-22T09:17:51;5.73;;;2.50;;
19985;SDS011;10154;52.474;10.768;2023-11-22T09:20:18;4.07;;;2.40;;
19985;SDS011;10154;52.474;10.768;2023-11-22T09:22:48;5.07;;;2.50;;
19985;SDS011;10154;52.474;10.768;2023-11-22T09:27:48;6.53;;;2.87;;
19985;SDS011;10154;52.474;10.768;2023-11-22T09:30:18;5.47;;;2.80;;
19985;SDS011;10154;52.474;10.768;2023-11-22T09:32:57;6.80;;;3.10;;
19985;SDS011;10154;52.474;10.768;2023-11-22T09:35:23;7.73;;;3.60;;
19985;SDS011;10154;52.474;10.768;2023-11-22T09:37:50;6.90;;;3.57;;
19985;SDS011;10154;52.474;10.768;2023-11-22T09:40:18;10.97;;;4.10;;
19985;SDS011;10154;52.474;10.768;2023-11-22T09:42:44;8.47;;;4.00;;
19985;SDS011;10154;52.474;10.768;2023-11-22T09:45:15;5.93;;;3.20;;
19985;SDS011;10154;52.474;10.768;2023-11-22T09:47:43;7.87;;;3.63;;
19985;SDS011;10154;52.474;10.768;2023-11-22T09:50:08;9.03;;;3.47;;
19985;SDS011;10154;52.474;10.768;2023-11-22T09:52:35;9.70;;;3.73;;
19985;SDS011;10154;52.474;10.768;2023-11-22T09:55:02;6.33;;;3.30;;
19985;SDS011;10154;52.474;10.768;2023-11-22T09:57:28;6.93;;;3.60;;
19985;SDS011;10154;52.474;10.768;2023-11-22T09:59:55;7.10;;;3.47;;
19985;SDS011;10154;52.474;10.768;2023-11-22T10:02:21;8.47;;;3.37;;
19985;SDS011;10154;52.474;10.768;2023-11-22T10:04:51;7.53;;;3.40;;
19985;SDS011;10154;52.474;10.768;2023-11-22T10:07:17;9.23;;;3.63;;
19985;SDS011;10154;52.474;10.768;2023-11-22T10:09:42;9.47;;;3.47;;
19985;SDS011;10154;52.474;10.768;2023-11-22T10:12:09;7.80;;;3.77;;
19985;SDS011;10154;52.474;10.768;2023-11-22T10:14:37;6.73;;;3.47;;
19985;SDS011;10154;52.474;10.768;2023-11-22T10:17:03;8.27;;;3.43;;
19985;SDS011;10154;52.474;10.768;2023-11-22T10:19:30;7.87;;;3.63;;
19985;SDS011;10154;52.474;10.768;2023-11-22T10:22:14;8.23;;;3.60;;
19985;SDS011;10154;52.474;10.768;2023-11-22T10:24:42;8.00;;;4.10;;
19985;SDS011;10154;52.474;10.768;2023-11-22T10:27:08;8.10;;;3.90;;
19985;SDS011;10154;52.474;10.768;2023-11-22T10:29:35;9.93;;;4.40;;
19985;SDS011;10154;52.474;10.768;2023-11-22T10:32:01;6.97;;;3.37;;
19985;SDS011;10154;52.474;10.768;2023-11-22T10:34:28;6.37;;;3.40;;
19985;SDS011;10154;52.474;10.768;2023-11-22T10:36:55;8.83;;;3.80;;
19985;SDS011;10154;52.474;10.768;2023-11-22T10:39:21;6.40;;;3.37;;
19985;SDS011;10154;52.474;10.768;2023-11-22T10:41:46;8.57;;;3.87;;
19985;SDS011;10154;52.474;10.768;2023-11-22T10:44:12;8.57;;;4.03;;
19985;SDS011;10154;52.474;10.768;2023-11-22T10:46:40;7.93;;;3.77;;
19985;SDS011;10154;52.474;10.768;2023-11-22T10:49:05;8.23;;;3.43;;
19985;SDS011;10154;52.474;10.768;2023-11-22T10:51:31;6.97;;;4.00;;
19985;SDS011;10154;52.474;10.768;2023-11-22T10:53:57;8.03;;;3.80;;
19985;SDS011;10154;52.474;10.768;2023-11-22T10:56:25;9.23;;;3.83;;
19985;SDS011;10154;52.474;10.768;2023-11-22T10:58:55;8.33;;;3.50;;
19985;SDS011;10154;52.474;10.768;2023-11-22T11:01:24;8.10;;;4.20;;
19985;SDS011;10154;52.474;10.768;2023-11-22T11:03:59;10.10;;;4.30;;
19985;SDS011;10154;52.474;10.768;2023-11-22T11:06:31;8.50;;;3.93;;
19985;SDS011;10154;52.474;10.768;2023-11-22T11:08:59;8.27;;;4.53;;
19985;SDS011;10154;52.474;10.768;2023-11-22T11:11:25;8.37;;;3.97;;
19985;SDS011;10154;52.474;10.768;2023-11-22T11:13:52;7.60;;;4.13;;
19985;SDS011;10154;52.474;10.768;2023-11-22T11:16:18;10.83;;;4.40;;
19985;SDS011;10154;52.474;10.768;2023-11-22T11:18:44;7.33;;;4.17;;
19985;SDS011;10154;52.474;10.768;2023-11-22T11:21:10;8.67;;;4.23;;
19985;SDS011;10154;52.474;10.768;2023-11-22T11:23:40;9.47;;;4.03;;
19985;SDS011;10154;52.474;10.768;2023-11-22T11:26:13;9.93;;;4.37;;
19985;SDS011;10154;52.474;10.768;2023-11-22T11:28:44;9.40;;;4.10;;
19985;SDS011;10154;52.474;10.768;2023-11-22T11:31:10;8.60;;;3.80;;
19985;SDS011;10154;52.474;10.768;2023-11-22T11:33:53;8.03;;;3.40;;
19985;SDS011;10154;52.474;10.768;2023-11-22T11:36:25;8.80;;;4.23;;
19985;SDS011;10154;52.474;10.768;2023-11-22T11:38:57;7.23;;;4.07;;
19985;SDS011;10154;52.474;10.768;2023-11-22T11:41:32;8.43;;;4.00;;
19985;SDS011;10154;52.474;10.768;2023-11-22T11:43:58;8.13;;;3.77;;
19985;SDS011;10154;52.474;10.768;2023-11-22T11:46:26;11.23;;;4.03;;
19985;SDS011;10154;52.474;10.768;2023-11-22T11:48:54;7.93;;;3.93;;
19985;SDS011;10154;52.474;10.768;2023-11-22T11:51:24;9.77;;;4.10;;
19985;SDS011;10154;52.474;10.768;2023-11-22T11:53:50;7.50;;;4.00;;
19985;SDS011;10154;52.474;10.768;2023-11-22T11:56:16;8.07;;;4.10;;
19985;SDS011;10154;52.474;10.768;2023-11-22T11:58:43;9.63;;;4.27;;
19985;SDS011;10154;52.474;10.768;2023-11-22T12:01:15;11.63;;;3.90;;
19985;SDS011;10154;52.474;10.768;2023-11-22T12:03:47;8.73;;;4.80;;
19985;SDS011;10154;52.474;10.768;2023-11-22T12:06:16;8.13;;;3.97;;
19985;SDS011;10154;52.474;10.768;2023-11-22T12:08:42;10.10;;;4.73;;
19985;SDS011;10154;52.474;10.768;2023-11-22T12:11:08;8.70;;;4.07;;
19985;SDS011;10154;52.474;10.768;2023-11-22T12:13:33;9.20;;;3.97;;
19985;SDS011;10154;52.474;10.768;2023-11-22T12:16:00;8.97;;;4.27;;
19985;SDS011;10154;52.474;10.768;2023-11-22T12:18:27;8.23;;;4.00;;
19985;SDS011;10154;52.474;10.768;2023-11-22T12:20:56;8.90;;;4.20;;
19985;SDS011;10154;52.474;10.768;2023-11-22T12:23:23;10.50;;;4.53;;
19985;SDS011;10154;52.474;10.768;2023-11-22T12:25:52;8.33;;;4.30;;
19985;SDS011;10154;52.474;10.768;2023-11-22T12:28:23;8.50;;;3.50;;
19985;SDS011;10154;52.474;10.768;2023-11-22T12:30:49;7.43;;;3.77;;
19985;SDS011;10154;52.474;10.768;2023-11-22T12:33:16;9.13;;;4.23;;
19985;SDS011;10154;52.474;10.768;2023-11-22T12:35:43;8.87;;;4.20;;
19985;SDS011;10154;52.474;10.768;2023-11-22T12:38:09;9.60;;;4.17;;
19985;SDS011;10154;52.474;10.768;2023-11-22T12:40:34;9.43;;;3.90;;
19985;SDS011;10154;52.474;10.768;2023-11-22T12:43:01;6.57;;;3.43;;
19985;SDS011;10154;52.474;10.768;2023-11-22T12:45:27;7.87;;;3.80;;
19985;SDS011;10154;52.474;10.768;2023-11-22T12:47:54;7.47;;;3.50;;
19985;SDS011;10154;52.474;10.768;2023-11-22T12:50:36;10.20;;;4.30;;
19985;SDS011;10154;52.474;10.768;2023-11-22T12:53:12;8.40;;;3.90;;
19985;SDS011;10154;52.474;10.768;2023-11-22T12:55:41;8.07;;;3.93;;
19985;SDS011;10154;52.474;10.768;2023-11-22T12:58:08;8.37;;;3.90;;
19985;SDS011;10154;52.474;10.768;2023-11-22T13:00:33;11.63;;;3.77;;
19985;SDS011;10154;52.474;10.768;2023-11-22T13:02:59;7.47;;;3.73;;
19985;SDS011;10154;52.474;10.768;2023-11-22T13:05:25;6.47;;;3.60;;
19985;SDS011;10154;52.474;10.768;2023-11-22T13:07:50;8.87;;;3.77;;
19985;SDS011;10154;52.474;10.768;2023-11-22T13:10:16;8.37;;;3.97;;
19985;SDS011;10154;52.474;10.768;2023-11-22T13:12:43;9.27;;;3.60;;
19985;SDS011;10154;52.474;10.768;2023-11-22T13:15:09;6.97;;;2.93;;
19985;SDS011;10154;52.474;10.768;2023-11-22T13:17:36;6.63;;;3.07;;
19985;SDS011;10154;52.474;10.768;2023-11-22T13:20:02;5.63;;;2.53;;
19985;SDS011;10154;52.474;10.768;2023-11-22T13:22:30;9.73;;;3.47;;
19985;SDS011;10154;52.474;10.768;2023-11-22T13:24:56;7.57;;;3.20;;
19985;SDS011;10154;52.474;10.768;2023-11-22T13:27:23;8.27;;;3.37;;
19985;SDS011;10154;52.474;10.768;2023-11-22T13:29:49;6.97;;;3.47;;
19985;SDS011;10154;52.474;10.768;2023-11-22T13:32:14;6.13;;;2.93;;
19985;SDS011;10154;52.474;10.768;2023-11-22T13:34:42;8.33;;;3.50;;
19985;SDS011;10154;52.474;10.768;2023-11-22T13:37:08;7.40;;;3.20;;
19985;SDS011;10154;52.474;10.768;2023-11-22T13:39:33;7.27;;;3.53;;
19985;SDS011;10154;52.474;10.768;2023-11-22T13:41:58;5.33;;;2.90;;
19985;SDS011;10154;52.474;10.768;2023-11-22T13:44:24;6.60;;;3.70;;
19985;SDS011;10154;52.474;10.768;2023-11-22T13:46:50;8.37;;;3.27;;
19985;SDS011;10154;52.474;10.768;2023-11-22T13:49:16;8.03;;;3.40;;
19985;SDS011;10154;52.474;10.768;2023-11-22T13:51:41;9.53;;;3.50;;
19985;SDS011;10154;52.474;10.768;2023-11-22T13:54:07;7.20;;;2.83;;
19985;SDS011;10154;52.474;10.768;2023-11-22T13:56:32;7.00;;;3.33;;
19985;SDS011;10154;52.474;10.768;2023-11-22T13:58:58;6.30;;;2.97;;
19985;SDS011;10154;52.474;10.768;2023-11-22T14:01:24;6.37;;;3.20;;
19985;SDS011;10154;52.474;10.768;2023-11-22T14:03:51;9.10;;;3.40;;
19985;SDS011;10154;52.474;10.768;2023-11-22T14:06:17;9.37;;;3.50;;
19985;SDS011;10154;52.474;10.768;2023-11-22T14:08:42;6.77;;;2.80;;
19985;SDS011;10154;52.474;10.768;2023-11-22T14:11:08;17.03;;;3.40;;
19985;SDS011;10154;52.474;10.768;2023-11-22T14:13:34;6.70;;;3.13;;
19985;SDS011;10154;52.474;10.768;2023-11-22T14:15:59;7.83;;;3.20;;
19985;SDS011;10154;52.474;10.768;2023-11-22T14:18:26;10.77;;;3.60;;
19985;SDS011;10154;52.474;10.768;2023-11-22T14:20:51;10.50;;;3.43;;
19985;SDS011;10154;52.474;10.768;2023-11-22T14:23:16;7.83;;;3.53;;
19985;SDS011;10154;52.474;10.768;2023-11-22T14:25:42;8.90;;;3.60;;
19985;SDS011;10154;52.474;10.768;2023-11-22T14:28:08;8.93;;;3.87;;
19985;SDS011;10154;52.474;10.768;2023-11-22T14:30:33;9.97;;;4.43;;